createdAt,value
2022-11-09T00:01:04.532Z,98223.19
2022-11-09T00:03:31.755Z,98234.25
2022-11-09T00:05:59.873Z,98233.75
2022-11-09T00:08:27.041Z,98231.25
2022-11-09T00:10:54.116Z,98225.44
2022-11-09T00:13:21.507Z,98235.53
2022-11-09T00:15:48.690Z,98236.69
2022-11-09T00:18:15.486Z,98244.78
2022-11-09T00:20:47.778Z,98239.97
2022-11-09T00:23:16.727Z,98234.00
2022-11-09T00:25:44.152Z,98241.28
2022-11-09T00:28:11.279Z,98256.50
2022-11-09T00:30:38.152Z,98253.31
2022-11-09T00:33:05.181Z,98250.97
2022-11-09T00:35:32.031Z,98251.94
2022-11-09T00:37:59.170Z,98254.91
2022-11-09T00:40:26.070Z,98254.22
2022-11-09T00:42:52.872Z,98257.19
2022-11-09T00:45:20.485Z,98257.38
2022-11-09T00:47:47.317Z,98257.50
2022-11-09T00:50:14.138Z,98263.94
2022-11-09T00:52:40.946Z,98260.63
2022-11-09T00:55:08.164Z,98269.41
2022-11-09T00:57:35.141Z,98259.97
2022-11-09T01:00:01.979Z,98261.94
2022-11-09T01:02:28.994Z,98265.56
2022-11-09T01:04:55.861Z,98257.72
2022-11-09T01:07:22.746Z,98273.16
2022-11-09T01:09:49.673Z,98266.78
2022-11-09T01:12:16.614Z,98281.25
2022-11-09T01:14:43.584Z,98281.56
2022-11-09T01:17:10.440Z,98284.34
2022-11-09T01:19:37.297Z,98287.97
2022-11-09T01:22:04.264Z,98287.19
2022-11-09T01:24:31.116Z,98289.28
2022-11-09T01:26:58.087Z,98289.47
2022-11-09T01:29:24.971Z,98286.81
2022-11-09T01:31:54.454Z,98286.09
2022-11-09T01:34:21.400Z,98289.75
2022-11-09T01:36:51.971Z,98296.03
2022-11-09T01:39:19.746Z,98296.19
2022-11-09T01:41:47.418Z,98298.16
2022-11-09T01:44:18.403Z,98302.41
2022-11-09T01:47:02.390Z,98303.78
2022-11-09T01:49:56.649Z,98300.22
2022-11-09T01:52:36.342Z,98314.69
2022-11-09T01:55:12.863Z,98317.47
2022-11-09T01:57:52.283Z,98317.63
2022-11-09T02:00:19.335Z,98308.00
2022-11-09T02:02:54.569Z,98309.00
2022-11-09T02:05:25.699Z,98309.00
2022-11-09T02:07:52.867Z,98313.47
2022-11-09T02:10:29.927Z,98306.66
2022-11-09T02:12:59.189Z,98317.25
2022-11-09T02:15:26.915Z,98314.72
2022-11-09T02:17:55.393Z,98328.13
2022-11-09T02:20:23.559Z,98329.78
2022-11-09T02:22:50.461Z,98332.59
2022-11-09T02:25:17.939Z,98341.50
2022-11-09T02:27:45.677Z,98336.22
2022-11-09T02:30:14.112Z,98339.03
2022-11-09T02:32:41.140Z,98346.97
2022-11-09T02:35:08.721Z,98349.63
2022-11-09T02:37:39.928Z,98349.63
2022-11-09T02:40:33.431Z,98348.78
2022-11-09T02:43:01.808Z,98351.59
2022-11-09T02:45:28.786Z,98346.31
2022-11-09T02:47:55.707Z,98348.94
2022-11-09T02:50:22.661Z,98357.88
2022-11-09T02:52:49.583Z,98370.25
2022-11-09T02:55:16.542Z,98364.16
2022-11-09T02:57:43.388Z,98368.63
2022-11-09T03:00:10.900Z,98363.47
2022-11-09T03:02:37.890Z,98362.47
2022-11-09T03:05:05.406Z,98377.53
2022-11-09T03:07:32.987Z,98372.25
2022-11-09T03:09:59.903Z,98373.22
2022-11-09T03:12:29.888Z,98367.91
2022-11-09T03:15:01.679Z,98372.53
2022-11-09T03:17:29.112Z,98368.06
2022-11-09T03:19:56.051Z,98364.47
2022-11-09T03:22:22.903Z,98360.13
2022-11-09T03:24:49.800Z,98368.06
2022-11-09T03:27:16.690Z,98372.53
2022-11-09T03:29:43.677Z,98376.19
2022-11-09T03:32:12.023Z,98379.63
2022-11-09T03:34:38.848Z,98375.34
2022-11-09T03:37:05.712Z,98379.81
2022-11-09T03:39:33.622Z,98380.78
2022-11-09T03:42:00.574Z,98384.25
2022-11-09T03:44:27.509Z,98394.72
2022-11-09T03:46:54.395Z,98396.53
2022-11-09T03:49:24.016Z,98394.84
2022-11-09T03:51:51.731Z,98410.75
2022-11-09T03:54:18.559Z,98396.81
2022-11-09T03:56:45.374Z,98407.41
2022-11-09T03:59:12.222Z,98411.03
2022-11-09T04:01:39.132Z,98416.31
2022-11-09T04:04:06.038Z,98411.19
2022-11-09T04:06:32.984Z,98419.13
2022-11-09T04:08:59.802Z,98415.66
2022-11-09T04:11:26.671Z,98417.47
2022-11-09T04:13:53.530Z,98424.44
2022-11-09T04:16:20.397Z,98442.81
2022-11-09T04:18:47.363Z,98441.97
2022-11-09T04:21:14.235Z,98441.16
2022-11-09T04:23:41.081Z,98443.81
2022-11-09T04:26:08.102Z,98455.38
2022-11-09T04:28:34.938Z,98447.41
2022-11-09T04:31:02.562Z,98450.06
2022-11-09T04:33:29.442Z,98459.81
2022-11-09T04:36:01.744Z,98455.38
2022-11-09T04:38:28.584Z,98459.97
2022-11-09T04:40:55.450Z,98468.88
2022-11-09T04:43:22.544Z,98474.19
2022-11-09T04:45:49.510Z,98474.34
2022-11-09T04:48:16.400Z,98479.66
2022-11-09T04:50:43.169Z,98488.56
2022-11-09T04:53:15.666Z,98486.75
2022-11-09T04:55:42.791Z,98485.78
2022-11-09T04:58:10.402Z,98498.31
2022-11-09T05:00:37.437Z,98503.59
2022-11-09T05:03:06.076Z,98506.25
2022-11-09T05:05:37.589Z,98522.13
2022-11-09T05:08:05.277Z,98527.59
2022-11-09T05:10:32.986Z,98531.19
2022-11-09T05:13:08.299Z,98534.00
2022-11-09T05:15:36.304Z,98543.47
2022-11-09T05:18:03.861Z,98549.59
2022-11-09T05:20:31.332Z,98552.25
2022-11-09T05:23:18.466Z,98559.34
2022-11-09T05:28:13.921Z,98555.88
2022-11-09T05:30:40.949Z,98561.31
2022-11-09T05:33:07.815Z,98559.47
2022-11-09T05:35:34.764Z,98557.84
2022-11-09T05:38:01.624Z,98570.22
2022-11-09T05:40:28.549Z,98568.25
2022-11-09T05:42:56.860Z,98570.50
2022-11-09T05:45:41.883Z,98579.66
2022-11-09T05:48:10.881Z,98573.94
2022-11-09T05:50:38.951Z,98580.22
2022-11-09T05:53:05.743Z,98574.38
2022-11-09T05:55:32.594Z,98585.09
2022-11-09T05:57:59.642Z,98584.44
2022-11-09T06:00:26.931Z,98586.22
2022-11-09T06:02:53.805Z,98585.56
2022-11-09T06:05:21.672Z,98589.84
2022-11-09T06:07:48.663Z,98589.84
2022-11-09T06:10:15.583Z,98584.72
2022-11-09T06:12:42.473Z,98590.00
2022-11-09T06:15:09.762Z,98586.63
2022-11-09T06:17:36.625Z,98590.81
2022-11-09T06:20:04.703Z,98597.78
2022-11-09T06:22:31.546Z,98606.25
2022-11-09T06:24:58.347Z,98613.91
2022-11-09T06:27:25.233Z,98615.59
2022-11-09T06:29:52.093Z,98617.81
2022-11-09T06:32:18.896Z,98596.09
2022-11-09T06:34:48.504Z,98620.84
2022-11-09T06:37:18.067Z,98615.56
2022-11-09T06:39:45.637Z,98619.88
2022-11-09T06:42:12.534Z,98624.22
2022-11-09T06:44:39.558Z,98627.41
2022-11-09T06:47:06.334Z,98627.28
2022-11-09T06:49:33.374Z,98625.03
2022-11-09T06:52:00.332Z,98628.63
2022-11-09T06:54:28.393Z,98631.28
2022-11-09T06:56:56.066Z,98641.88
2022-11-09T06:59:23.054Z,98643.69
2022-11-09T07:01:50.016Z,98632.56
2022-11-09T07:04:17.134Z,98634.66
2022-11-09T07:06:44.364Z,98650.97
2022-11-09T07:09:12.223Z,98656.41
2022-11-09T07:11:39.578Z,98657.38
2022-11-09T07:14:06.486Z,98669.94
2022-11-09T07:16:33.951Z,98669.09
2022-11-09T07:19:00.993Z,98684.16
2022-11-09T07:21:27.901Z,98687.50
2022-11-09T07:23:54.795Z,98706.75
2022-11-09T07:26:21.677Z,98715.13
2022-11-09T07:28:48.593Z,98708.72
2022-11-09T07:31:15.739Z,98724.34
2022-11-09T07:33:42.605Z,98721.81
2022-11-09T07:36:09.739Z,98735.47
2022-11-09T07:38:36.805Z,98741.34
2022-11-09T07:41:03.820Z,98753.63
2022-11-09T07:43:30.936Z,98751.94
2022-11-09T07:45:58.147Z,98751.09
2022-11-09T07:48:25.163Z,98759.03
2022-11-09T07:50:52.078Z,98765.31
2022-11-09T07:53:19.486Z,98783.88
2022-11-09T07:55:46.618Z,98796.09
2022-11-09T07:58:16.232Z,98800.56
2022-11-09T08:00:44.564Z,98803.22
2022-11-09T08:03:11.576Z,98806.84
2022-11-09T08:05:39.377Z,98798.91
2022-11-09T08:08:10.758Z,98790.97
2022-11-09T08:10:38.905Z,98790.28
2022-11-09T08:13:08.627Z,98792.91
2022-11-09T08:15:36.593Z,98783.84
2022-11-09T08:18:06.295Z,98801.81
2022-11-09T08:20:34.692Z,98805.31
2022-11-09T08:23:04.900Z,98818.56
2022-11-09T08:25:34.490Z,98817.72
2022-11-09T08:28:01.848Z,98823.16
2022-11-09T08:30:28.853Z,98811.41
2022-11-09T08:32:56.011Z,98825.94
2022-11-09T08:35:24.680Z,98816.19
2022-11-09T08:37:53.463Z,98817.13
2022-11-09T08:40:26.270Z,98823.28
2022-11-09T08:42:55.098Z,98824.25
2022-11-09T08:45:22.221Z,98828.84
2022-11-09T08:47:49.157Z,98834.13
2022-11-09T08:50:16.612Z,98834.97
2022-11-09T08:52:43.488Z,98842.22
2022-11-09T08:55:10.511Z,98848.38
2022-11-09T08:57:37.456Z,98848.50
2022-11-09T09:00:05.849Z,98849.47
2022-11-09T09:02:33.256Z,98838.56
2022-11-09T09:05:00.526Z,98851.28
2022-11-09T09:07:27.493Z,98859.22
2022-11-09T09:09:54.664Z,98849.47
2022-11-09T09:12:21.756Z,98844.19
2022-11-09T09:14:48.851Z,98855.59
2022-11-09T09:17:16.238Z,98857.44
2022-11-09T09:19:48.803Z,98862.84
2022-11-09T09:22:16.914Z,98868.13
2022-11-09T09:24:43.869Z,98873.44
2022-11-09T09:27:10.784Z,98885.81
2022-11-09T09:29:37.959Z,98887.66
2022-11-09T09:32:05.476Z,98890.41
2022-11-09T09:34:32.505Z,98887.03
2022-11-09T09:36:59.481Z,98894.97
2022-11-09T09:39:26.592Z,98912.44
2022-11-09T09:41:56.941Z,98911.59
2022-11-09T09:44:33.036Z,98915.09
2022-11-09T09:47:14.850Z,98917.75
2022-11-09T09:49:46.129Z,98924.72
2022-11-09T09:52:15.687Z,98927.38
2022-11-09T09:54:51.998Z,98932.66
2022-11-09T09:57:22.692Z,98936.28
2022-11-09T09:59:56.951Z,98946.72
2022-11-09T10:02:27.019Z,98961.63
2022-11-09T10:04:59.183Z,98962.47
2022-11-09T10:07:33.209Z,98970.44
2022-11-09T10:10:08.485Z,98979.06
2022-11-09T10:13:12.772Z,98987.69
2022-11-09T10:15:55.734Z,98993.00
2022-11-09T10:18:25.704Z,98997.34
2022-11-09T10:21:28.158Z,98984.94
2022-11-09T10:24:03.450Z,98984.78
2022-11-09T10:26:51.043Z,98986.59
2022-11-09T10:29:36.274Z,98999.72
2022-11-09T10:32:23.494Z,98995.53
2022-11-09T10:35:22.570Z,99007.94
2022-11-09T10:37:52.580Z,99001.94
2022-11-09T10:40:42.163Z,98998.44
2022-11-09T10:43:15.821Z,99000.25
2022-11-09T10:45:45.027Z,99008.19
2022-11-09T10:48:14.360Z,99016.97
2022-11-09T10:50:49.138Z,99019.47
2022-11-09T10:53:19.516Z,99019.47
2022-11-09T10:55:52.342Z,99037.91
2022-11-09T10:58:37.564Z,99026.47
2022-11-09T11:01:21.111Z,99038.72
2022-11-09T11:03:53.581Z,99034.25
2022-11-09T11:06:23.771Z,99034.16
2022-11-09T11:08:51.715Z,99031.50
2022-11-09T11:11:35.397Z,99039.44
2022-11-09T11:14:30.173Z,99037.63
2022-11-09T11:16:57.328Z,99044.72
2022-11-09T11:19:30.560Z,99032.00
2022-11-09T11:22:23.654Z,99048.22
2022-11-09T11:25:23.205Z,99063.28
2022-11-09T11:27:56.213Z,99048.22
2022-11-09T11:30:32.081Z,99068.44
2022-11-09T11:32:59.311Z,99064.94
2022-11-09T11:35:44.164Z,99070.13
2022-11-09T11:38:45.841Z,99053.63
2022-11-09T11:41:40.282Z,99076.69
2022-11-09T11:44:20.689Z,99076.56
2022-11-09T11:46:56.086Z,99085.19
2022-11-09T11:50:00.479Z,99084.25
2022-11-09T11:52:52.628Z,99077.84
2022-11-09T11:55:44.705Z,99106.00
2022-11-09T11:58:27.652Z,99078.41
2022-11-09T12:01:07.091Z,99089.56
2022-11-09T12:03:55.643Z,99102.56
2022-11-09T12:06:49.669Z,99105.91
2022-11-09T12:09:41.087Z,99109.41
2022-11-09T12:12:13.552Z,99108.28
2022-11-09T12:15:02.083Z,99096.03
2022-11-09T12:17:55.371Z,99122.53
2022-11-09T12:20:40.849Z,99125.19
2022-11-09T12:23:23.318Z,99137.44
2022-11-09T12:25:56.454Z,99127.56
2022-11-09T12:28:51.529Z,99133.56
2022-11-09T12:31:56.172Z,99129.81
2022-11-09T12:34:34.807Z,99141.00
2022-11-09T12:37:16.801Z,99145.19
2022-11-09T12:40:15.844Z,99138.78
2022-11-09T12:42:48.344Z,99158.03
2022-11-09T12:45:35.466Z,99153.59
2022-11-09T12:48:13.692Z,99169.34
2022-11-09T12:50:40.969Z,99168.75
2022-11-09T12:53:09.054Z,99163.59
2022-11-09T12:55:55.564Z,99161.91
2022-11-09T12:58:24.173Z,99177.53
2022-11-09T13:00:54.997Z,99170.31
2022-11-09T13:03:30.683Z,99180.94
2022-11-09T13:06:17.126Z,99170.31
2022-11-09T13:08:56.964Z,99174.53
2022-11-09T13:11:36.390Z,99167.28
2022-11-09T13:14:21.895Z,99162.81
2022-11-09T13:17:00.554Z,99168.22
2022-11-09T13:19:36.680Z,99168.94
2022-11-09T13:22:12.678Z,99155.25
2022-11-09T13:24:56.075Z,99169.78
2022-11-09T13:27:40.142Z,99170.63
2022-11-09T13:30:25.542Z,99182.31
2022-11-09T13:33:07.821Z,99178.97
2022-11-09T13:35:40.904Z,99179.69
2022-11-09T13:38:18.156Z,99193.88
2022-11-09T13:40:48.742Z,99190.53
2022-11-09T13:43:30.671Z,99194.44
2022-11-09T13:46:03.494Z,99208.78
2022-11-09T13:48:40.105Z,99194.94
2022-11-09T13:51:13.584Z,99223.25
2022-11-09T13:54:02.733Z,99234.00
2022-11-09T13:56:38.050Z,99233.25
2022-11-09T13:59:05.049Z,99234.94
2022-11-09T14:01:38.076Z,99231.34
2022-11-09T14:04:05.960Z,99243.75
2022-11-09T14:06:33.984Z,99245.53
2022-11-09T14:09:03.145Z,99254.44
2022-11-09T14:11:40.563Z,99250.00
2022-11-09T14:14:49.646Z,99257.38
2022-11-09T14:17:34.194Z,99257.19
2022-11-09T14:20:56.349Z,99264.59
2022-11-09T14:23:30.448Z,99263.91
2022-11-09T14:25:58.010Z,99272.69
2022-11-09T14:28:28.525Z,99270.88
2022-11-09T14:30:56.472Z,99276.44
2022-11-09T14:33:26.366Z,99283.41
2022-11-09T14:35:56.928Z,99285.09
2022-11-09T14:38:36.080Z,99291.47
2022-11-09T14:41:03.532Z,99291.47
2022-11-09T14:43:41.251Z,99300.28
2022-11-09T14:46:17.303Z,99297.63
2022-11-09T14:48:56.205Z,99294.38
2022-11-09T14:51:38.191Z,99305.13
2022-11-09T14:54:13.829Z,99299.81
2022-11-09T14:56:42.767Z,99309.56
2022-11-09T14:59:14.806Z,99322.81
2022-11-09T15:02:16.113Z,99323.66
2022-11-09T15:05:02.627Z,99335.34
2022-11-09T15:07:38.567Z,99338.84
2022-11-09T15:10:18.263Z,99344.97
2022-11-09T15:12:52.900Z,99354.75
2022-11-09T15:15:25.054Z,99357.50
2022-11-09T15:17:52.959Z,99365.59
2022-11-09T15:20:20.226Z,99358.34
2022-11-09T15:23:00.990Z,99358.34
2022-11-09T15:25:29.714Z,99367.25
2022-11-09T15:28:01.455Z,99370.88
2022-11-09T15:30:45.798Z,99375.34
2022-11-09T15:33:25.103Z,99377.84
2022-11-09T15:36:01.282Z,99380.63
2022-11-09T15:38:30.152Z,99381.72
2022-11-09T15:40:58.096Z,99379.94
2022-11-09T15:43:25.907Z,99392.31
2022-11-09T15:45:53.928Z,99396.63
2022-11-09T15:48:23.147Z,99388.69
2022-11-09T15:50:50.458Z,99383.66
2022-11-09T15:53:17.873Z,99373.06
2022-11-09T15:55:44.853Z,99380.16
2022-11-09T15:58:14.988Z,99382.81
2022-11-09T16:00:42.700Z,99383.66
2022-11-09T16:03:10.750Z,99380.03
2022-11-09T16:05:38.134Z,99377.53
2022-11-09T16:08:08.152Z,99378.47
2022-11-09T16:10:38.285Z,99380.28
2022-11-09T16:13:09.186Z,99397.00
2022-11-09T16:15:38.035Z,99405.91
2022-11-09T16:18:05.827Z,99403.88
2022-11-09T16:20:33.518Z,99395.22
2022-11-09T16:23:01.108Z,99414.94
2022-11-09T16:25:28.580Z,99419.44
2022-11-09T16:27:55.626Z,99435.41
2022-11-09T16:30:22.919Z,99430.13
2022-11-09T16:32:50.100Z,99430.38
2022-11-09T16:35:32.744Z,99442.66
2022-11-09T16:38:03.357Z,99450.75
2022-11-09T16:40:32.365Z,99465.88
2022-11-09T16:43:00.730Z,99469.38
2022-11-09T16:45:32.137Z,99458.91
2022-11-09T16:48:04.835Z,99477.56
2022-11-09T16:50:32.142Z,99473.25
2022-11-09T16:52:59.493Z,99477.69
2022-11-09T16:55:26.546Z,99474.19
2022-11-09T16:57:54.722Z,99486.59
2022-11-09T17:00:27.631Z,99482.63
2022-11-09T17:03:05.043Z,99473.94
2022-11-09T17:05:32.771Z,99496.34
2022-11-09T17:07:59.899Z,99492.03
2022-11-09T17:10:26.986Z,99493.81
2022-11-09T17:12:54.077Z,99501.06
2022-11-09T17:15:21.463Z,99502.84
2022-11-09T17:17:48.772Z,99494.91
2022-11-09T17:20:16.199Z,99494.06
2022-11-09T17:22:46.098Z,99487.06
2022-11-09T17:25:13.640Z,99493.31
2022-11-09T17:27:40.666Z,99480.69
2022-11-09T17:30:08.832Z,99488.25
2022-11-09T17:32:38.334Z,99489.09
2022-11-09T17:35:05.644Z,99500.63
2022-11-09T17:37:33.949Z,99507.63
2022-11-09T17:40:00.980Z,99498.00
2022-11-09T17:42:28.068Z,99498.34
2022-11-09T17:44:55.251Z,99492.09
2022-11-09T17:47:22.964Z,99363.28
2022-11-09T17:49:49.983Z,99475.53
2022-11-09T17:52:17.333Z,99511.41
2022-11-09T17:54:44.248Z,99501.66
2022-11-09T17:57:11.400Z,99503.72
2022-11-09T17:59:38.494Z,99502.66
2022-11-09T18:02:05.383Z,99504.22
2022-11-09T18:04:32.340Z,99510.22
2022-11-09T18:06:59.854Z,99511.06
2022-11-09T18:09:40.872Z,99526.84
2022-11-09T18:12:09.362Z,99514.44
2022-11-09T18:14:36.458Z,99499.19
2022-11-09T18:17:04.130Z,99498.09
2022-11-09T18:19:31.147Z,99503.16
2022-11-09T18:22:02.484Z,99507.34
2022-11-09T18:24:31.357Z,99506.59
2022-11-09T18:26:58.576Z,99477.72
2022-11-09T18:29:25.934Z,99484.25
2022-11-09T18:31:53.772Z,99525.78
2022-11-09T18:34:20.952Z,99520.34
2022-11-09T18:36:47.928Z,99521.19
2022-11-09T18:39:16.765Z,99527.22
2022-11-09T18:41:43.776Z,99532.38
2022-11-09T18:44:10.745Z,99529.63
2022-11-09T18:46:37.830Z,99514.34
2022-11-09T18:49:10.106Z,99503.50
2022-11-09T18:51:39.735Z,99528.78
2022-11-09T18:54:08.696Z,99538.31
2022-11-09T18:56:36.243Z,99529.16
2022-11-09T18:59:04.123Z,99529.66
2022-11-09T19:01:33.137Z,99554.00
2022-11-09T19:04:02.765Z,99518.34
2022-11-09T19:06:30.230Z,99540.50
2022-11-09T19:09:15.982Z,99534.97
2022-11-09T19:11:43.863Z,99497.75
2022-11-09T19:14:11.685Z,99530.06
2022-11-09T19:16:39.113Z,99530.41
2022-11-09T19:19:08.132Z,99536.31
2022-11-09T19:21:43.067Z,99530.53
2022-11-09T19:24:15.983Z,99519.41
2022-11-09T19:26:44.388Z,99525.22
2022-11-09T19:29:19.458Z,99520.38
2022-11-09T19:31:47.197Z,99522.81
2022-11-09T19:34:17.426Z,99514.56
2022-11-09T19:36:46.669Z,99523.84
2022-11-09T19:39:15.341Z,99527.94
2022-11-09T19:44:13.916Z,99529.84
2022-11-09T19:46:44.386Z,99536.59
2022-11-09T19:49:13.328Z,99538.75
2022-11-09T19:51:40.905Z,99550.78
2022-11-09T19:54:12.193Z,99543.41
2022-11-09T19:56:40.493Z,99563.66
2022-11-09T19:59:13.691Z,99559.69
2022-11-09T20:01:40.856Z,99553.56
2022-11-09T20:04:10.369Z,99545.94
2022-11-09T20:06:39.625Z,99544.53
2022-11-09T20:09:07.008Z,99550.84
2022-11-09T20:11:55.303Z,99552.06
2022-11-09T20:14:23.153Z,99543.31
2022-11-09T20:16:50.310Z,99542.09
2022-11-09T20:19:17.966Z,99558.59
2022-11-09T20:21:46.290Z,99556.13
2022-11-09T20:24:13.494Z,99554.53
2022-11-09T20:26:42.642Z,99558.75
2022-11-09T20:29:10.471Z,99568.59
2022-11-09T20:31:38.353Z,99554.94
2022-11-09T20:34:06.365Z,99553.41
2022-11-09T20:36:38.377Z,99552.31
2022-11-09T20:39:05.809Z,99544.34
2022-11-09T20:41:34.396Z,99545.78
2022-11-09T20:44:02.496Z,99549.75
2022-11-09T20:46:36.088Z,99553.09
2022-11-09T20:49:04.948Z,99543.91
2022-11-09T20:51:33.122Z,99533.41
2022-11-09T20:54:05.660Z,99532.28
2022-11-09T20:56:34.983Z,99536.66
2022-11-09T20:59:02.624Z,99540.72
2022-11-09T21:01:30.183Z,99545.38
2022-11-09T21:03:58.718Z,99541.66
2022-11-09T21:06:26.256Z,99548.78
2022-11-09T21:08:56.770Z,99532.56
2022-11-09T21:11:28.991Z,99534.81
2022-11-09T21:13:57.289Z,99541.25
2022-11-09T21:16:25.105Z,99542.22
2022-11-09T21:18:54.562Z,99540.13
2022-11-09T21:21:24.548Z,99544.34
2022-11-09T21:24:10.105Z,99536.38
2022-11-09T21:26:56.804Z,99542.66
2022-11-09T21:29:43.949Z,99548.22
2022-11-09T21:32:13.014Z,99556.09
2022-11-09T21:34:40.396Z,99550.75
2022-11-09T21:37:08.300Z,99538.44
2022-11-09T21:39:35.369Z,99535.78
2022-11-09T21:42:03.815Z,99536.91
2022-11-09T21:44:32.611Z,99531.72
2022-11-09T21:47:00.224Z,99522.22
2022-11-09T21:49:28.338Z,99532.00
2022-11-09T21:51:55.932Z,99525.25
2022-11-09T21:54:24.029Z,99533.00
2022-11-09T21:56:52.138Z,99539.13
2022-11-09T21:59:19.367Z,99533.63
2022-11-09T22:01:46.361Z,99526.88
2022-11-09T22:04:13.950Z,99528.38
2022-11-09T22:06:44.002Z,99529.03
2022-11-09T22:09:17.769Z,99530.25
2022-11-09T22:12:04.422Z,99529.69
2022-11-09T22:14:50.123Z,99529.94
2022-11-09T22:17:17.443Z,99521.53
2022-11-09T22:20:03.406Z,99516.63
2022-11-09T22:22:31.880Z,99521.31
2022-11-09T22:24:59.234Z,99513.03
2022-11-09T22:27:26.351Z,99500.53
2022-11-09T22:29:53.402Z,99517.88
2022-11-09T22:32:21.323Z,99512.81
2022-11-09T22:34:48.878Z,99519.38
2022-11-09T22:37:16.574Z,99527.56
2022-11-09T22:39:47.202Z,99526.03
2022-11-09T22:42:14.909Z,99523.75
2022-11-09T22:44:42.285Z,99515.06
2022-11-09T22:47:09.279Z,99511.84
2022-11-09T22:49:37.116Z,99506.53
2022-11-09T22:52:05.182Z,99495.44
2022-11-09T22:54:32.163Z,99502.66
2022-11-09T22:56:59.214Z,99482.53
2022-11-09T22:59:26.118Z,99491.59
2022-11-09T23:01:53.170Z,99490.88
2022-11-09T23:04:20.074Z,99486.66
2022-11-09T23:06:47.220Z,99496.56
2022-11-09T23:09:14.176Z,99490.66
2022-11-09T23:11:41.264Z,99479.34
2022-11-09T23:14:12.308Z,99477.78
2022-11-09T23:16:39.912Z,99469.13
2022-11-09T23:19:07.041Z,99448.53
2022-11-09T23:21:36.539Z,99461.53
2022-11-09T23:24:06.893Z,99456.47
2022-11-09T23:26:34.848Z,99448.66
2022-11-09T23:29:02.697Z,99464.56
2022-11-09T23:31:29.792Z,99447.22
2022-11-09T23:33:58.434Z,99459.75
2022-11-09T23:36:26.864Z,99454.59
2022-11-09T23:38:54.245Z,99443.78
2022-11-09T23:41:21.661Z,99464.59
2022-11-09T23:43:50.102Z,99470.03
2022-11-09T23:46:18.257Z,99471.00
2022-11-09T23:48:45.405Z,99466.78
2022-11-09T23:51:12.768Z,99452.81
2022-11-09T23:53:39.974Z,99459.22
2022-11-09T23:56:12.493Z,99454.03
2022-11-09T23:58:39.657Z,99441.88
